Time;durP1;ratioP1;P1;durP2;ratioP2;P2;SDS_P1;SDS_P2;PMS_P1;PMS_P2;Temp;Humidity;BMP_temperature;BMP_pressure;BME280_temperature;BME280_humidity;BME280_pressure;Samples;Min_cycle;Max_cycle;Signal;HPM_P1;HPM_P2
2023/08/12 00:01:32;;;;;;;12.40;5.38;;;;;;;;;;4990385;28;93120;-76
2023/08/12 00:03:58;;;;;;;15.85;5.72;;;;;;;;;;4992514;28;93438;-74
2023/08/12 00:06:25;;;;;;;13.27;5.80;;;;;;;;;;4995254;28;92836;-74
2023/08/12 00:08:51;;;;;;;8.50;4.97;;;;;;;;;;4989225;28;95789;-74
2023/08/12 00:11:18;;;;;;;7.65;4.90;;;;;;;;;;4993482;28;92584;-74
2023/08/12 00:13:44;;;;;;;13.77;5.35;;;;;;;;;;4994150;28;93152;-74
2023/08/12 00:16:11;;;;;;;7.85;5.22;;;;;;;;;;4995978;28;93462;-74
2023/08/12 00:18:37;;;;;;;14.23;5.25;;;;;;;;;;4994349;28;92530;-74
2023/08/12 00:21:07;;;;;;;14.50;5.00;;;;;;;;;;4994787;28;94214;-74
2023/08/12 00:23:37;;;;;;;14.60;5.47;;;;;;;;;;4993019;28;93374;-73
2023/08/12 00:26:03;;;;;;;17.30;5.30;;;;;;;;;;4997603;28;92231;-74
2023/08/12 00:28:30;;;;;;;20.15;6.05;;;;;;;;;;4993558;28;93785;-74
2023/08/12 00:30:56;;;;;;;12.48;5.68;;;;;;;;;;4992898;28;92476;-73
2023/08/12 00:33:22;;;;;;;13.95;5.57;;;;;;;;;;5001100;28;94709;-74
2023/08/12 00:35:49;;;;;;;15.02;6.13;;;;;;;;;;4993801;28;93462;-74
2023/08/12 00:38:15;;;;;;;16.08;5.93;;;;;;;;;;4994328;28;92442;-74
2023/08/12 00:40:42;;;;;;;13.38;6.63;;;;;;;;;;4989839;28;93172;-73
2023/08/12 00:43:09;;;;;;;13.77;6.22;;;;;;;;;;4995215;28;93627;-73
2023/08/12 00:45:35;;;;;;;13.30;6.15;;;;;;;;;;4992753;28;92577;-73
2023/08/12 00:48:02;;;;;;;16.33;7.07;;;;;;;;;;4994487;28;93363;-73
2023/08/12 00:50:29;;;;;;;20.80;7.05;;;;;;;;;;4993528;28;92791;-74
2023/08/12 00:52:55;;;;;;;19.92;7.47;;;;;;;;;;4998118;28;92446;-74
2023/08/12 00:55:22;;;;;;;16.25;8.15;;;;;;;;;;4988918;28;93371;-74
2023/08/12 00:57:48;;;;;;;20.63;7.35;;;;;;;;;;4990380;28;94995;-74
2023/08/12 01:00:15;;;;;;;17.58;7.63;;;;;;;;;;4990148;28;95552;-75
2023/08/12 01:02:45;;;;;;;15.93;8.30;;;;;;;;;;4992453;28;94405;-75
2023/08/12 01:05:12;;;;;;;18.77;8.20;;;;;;;;;;4986666;28;94176;-75
2023/08/12 01:07:38;;;;;;;16.63;8.73;;;;;;;;;;4989223;28;93166;-75
2023/08/12 01:10:05;;;;;;;17.23;9.00;;;;;;;;;;4988703;28;94584;-75
2023/08/12 01:12:34;;;;;;;18.83;8.75;;;;;;;;;;4988582;28;94011;-75
2023/08/12 01:15:03;;;;;;;15.18;8.57;;;;;;;;;;4994182;28;92692;-75
2023/08/12 01:17:31;;;;;;;15.80;8.50;;;;;;;;;;4990358;28;92451;-74
2023/08/12 01:19:58;;;;;;;22.15;9.20;;;;;;;;;;4993467;28;93248;-74
2023/08/12 01:22:25;;;;;;;22.35;10.43;;;;;;;;;;4992603;28;95735;-75
2023/08/12 01:24:52;;;;;;;16.83;8.93;;;;;;;;;;4992573;28;92789;-74
2023/08/12 01:27:20;;;;;;;20.30;9.77;;;;;;;;;;4993262;28;92601;-74
2023/08/12 01:29:49;;;;;;;18.17;10.52;;;;;;;;;;5001603;28;93238;-73
2023/08/12 01:32:24;;;;;;;23.13;10.25;;;;;;;;;;4991565;28;92447;-74
2023/08/12 01:34:54;;;;;;;24.75;10.13;;;;;;;;;;4992561;28;93241;-74
2023/08/12 01:37:24;;;;;;;20.90;10.95;;;;;;;;;;4991181;28;92653;-73
2023/08/12 01:39:52;;;;;;;23.23;10.60;;;;;;;;;;4992360;28;93499;-73
2023/08/12 01:42:19;;;;;;;22.13;11.30;;;;;;;;;;4995855;28;92474;-74
2023/08/12 01:44:46;;;;;;;19.70;10.38;;;;;;;;;;4996438;28;92434;-74
2023/08/12 01:47:13;;;;;;;19.63;10.68;;;;;;;;;;4990025;28;95153;-73
2023/08/12 01:49:40;;;;;;;27.40;10.60;;;;;;;;;;4994287;28;93936;-73
2023/08/12 01:52:06;;;;;;;21.92;9.73;;;;;;;;;;4991503;28;92480;-73
2023/08/12 01:54:35;;;;;;;20.40;9.57;;;;;;;;;;4993326;28;93451;-73
2023/08/12 01:57:02;;;;;;;14.98;9.38;;;;;;;;;;4993216;28;92690;-73
2023/08/12 01:59:29;;;;;;;23.50;10.00;;;;;;;;;;4993743;28;93234;-75
2023/08/12 02:01:55;;;;;;;23.88;10.35;;;;;;;;;;4986950;28;93471;-75
2023/08/12 02:04:22;;;;;;;22.65;10.98;;;;;;;;;;4987869;28;91968;-74
2023/08/12 02:06:49;;;;;;;27.00;11.15;;;;;;;;;;4992262;28;92515;-75
2023/08/12 02:09:15;;;;;;;22.95;10.75;;;;;;;;;;4988173;28;93402;-75
2023/08/12 02:11:42;;;;;;;25.08;10.77;;;;;;;;;;4988024;28;95026;-75
2023/08/12 02:14:08;;;;;;;24.25;10.70;;;;;;;;;;4990483;28;95620;-75
2023/08/12 02:16:35;;;;;;;21.15;10.43;;;;;;;;;;4998549;28;93700;-75
2023/08/12 02:19:01;;;;;;;25.45;10.95;;;;;;;;;;4991918;28;93249;-75
2023/08/12 02:21:27;;;;;;;24.08;10.70;;;;;;;;;;4984530;28;93425;-75
2023/08/12 02:23:54;;;;;;;20.95;10.93;;;;;;;;;;4990216;28;92477;-75
2023/08/12 02:26:20;;;;;;;19.75;9.82;;;;;;;;;;4994796;28;94049;-75
2023/08/12 02:28:47;;;;;;;19.45;9.82;;;;;;;;;;4979408;28;92677;-74
2023/08/12 02:31:15;;;;;;;18.30;10.27;;;;;;;;;;4991232;28;92562;-74
2023/08/12 02:33:41;;;;;;;20.45;10.95;;;;;;;;;;4993276;28;94284;-74
2023/08/12 02:36:08;;;;;;;20.92;10.75;;;;;;;;;;4995254;28;96120;-74
2023/08/12 02:38:34;;;;;;;20.55;11.45;;;;;;;;;;4995358;28;95500;-73
2023/08/12 02:41:01;;;;;;;23.45;10.88;;;;;;;;;;4992087;28;93550;-74
2023/08/12 02:43:27;;;;;;;21.65;11.20;;;;;;;;;;4991758;28;92545;-74
2023/08/12 02:45:53;;;;;;;25.23;11.23;;;;;;;;;;4994521;28;93146;-74
2023/08/12 02:48:20;;;;;;;21.30;11.43;;;;;;;;;;4993213;28;92917;-74
2023/08/12 02:50:47;;;;;;;21.92;11.88;;;;;;;;;;4993428;28;92568;-74
2023/08/12 02:53:15;;;;;;;21.33;11.50;;;;;;;;;;4992465;28;92259;-73
2023/08/12 02:55:41;;;;;;;29.30;12.38;;;;;;;;;;4991083;28;93447;-74
2023/08/12 02:58:07;;;;;;;31.35;12.60;;;;;;;;;;4996276;28;94722;-74
2023/08/12 03:00:34;;;;;;;29.55;12.80;;;;;;;;;;4988932;28;96278;-73
2023/08/12 03:03:00;;;;;;;26.17;13.50;;;;;;;;;;4993755;28;92593;-74
2023/08/12 03:05:27;;;;;;;26.23;13.35;;;;;;;;;;4996776;28;93878;-76
2023/08/12 03:07:53;;;;;;;23.50;12.95;;;;;;;;;;5001927;28;93473;-77
2023/08/12 03:10:20;;;;;;;24.55;13.07;;;;;;;;;;4990444;28;92482;-74
2023/08/12 03:12:46;;;;;;;24.27;12.65;;;;;;;;;;4990897;28;94025;-72
2023/08/12 03:15:13;;;;;;;29.88;13.50;;;;;;;;;;4991905;28;93381;-72
2023/08/12 03:17:39;;;;;;;30.70;13.00;;;;;;;;;;4991520;28;91702;-73
2023/08/12 03:20:08;;;;;;;25.25;12.77;;;;;;;;;;4998640;28;92626;-73
2023/08/12 03:22:38;;;;;;;22.95;12.68;;;;;;;;;;4994519;28;92483;-73
2023/08/12 03:25:05;;;;;;;25.10;13.73;;;;;;;;;;4997383;28;94992;-74
2023/08/12 03:27:31;;;;;;;29.85;13.52;;;;;;;;;;4991710;28;93749;-73
2023/08/12 03:29:57;;;;;;;25.60;12.48;;;;;;;;;;4990729;28;92944;-73
2023/08/12 03:32:25;;;;;;;19.25;12.35;;;;;;;;;;4990853;28;93188;-74
2023/08/12 03:34:51;;;;;;;30.15;13.80;;;;;;;;;;4994664;28;93403;-74
2023/08/12 03:37:18;;;;;;;29.73;13.32;;;;;;;;;;4995623;28;92570;-74
2023/08/12 03:39:44;;;;;;;23.08;13.32;;;;;;;;;;4992530;28;93213;-74
2023/08/12 03:42:11;;;;;;;21.17;13.15;;;;;;;;;;4996952;28;93112;-73
2023/08/12 03:44:37;;;;;;;26.52;12.57;;;;;;;;;;4995957;28;92785;-74
2023/08/12 03:47:04;;;;;;;31.02;13.80;;;;;;;;;;4994140;28;96125;-73
2023/08/12 03:49:30;;;;;;;23.48;12.93;;;;;;;;;;4991509;28;95050;-73
2023/08/12 03:51:56;;;;;;;30.63;14.23;;;;;;;;;;4991086;28;95606;-73
2023/08/12 03:54:23;;;;;;;27.20;12.98;;;;;;;;;;4994698;28;93527;-73
2023/08/12 03:56:49;;;;;;;21.50;13.32;;;;;;;;;;4992644;28;92568;-73
2023/08/12 03:59:15;;;;;;;30.25;13.45;;;;;;;;;;4996303;28;94254;-73
2023/08/12 04:01:42;;;;;;;24.15;12.93;;;;;;;;;;4991332;28;93439;-73
2023/08/12 04:04:08;;;;;;;26.30;13.35;;;;;;;;;;4996761;28;92467;-73
2023/08/12 04:06:39;;;;;;;28.13;14.18;;;;;;;;;;4994012;28;92803;-73
2023/08/12 04:09:05;;;;;;;26.02;14.05;;;;;;;;;;4992441;28;92933;-75
2023/08/12 04:11:32;;;;;;;30.95;14.65;;;;;;;;;;4998690;28;93159;-75
2023/08/12 04:13:58;;;;;;;27.40;14.20;;;;;;;;;;4988501;28;95769;-77
2023/08/12 04:16:24;;;;;;;26.73;15.18;;;;;;;;;;4988869;28;92424;-76
2023/08/12 04:18:51;;;;;;;30.35;15.20;;;;;;;;;;4993318;28;93172;-76
2023/08/12 04:21:19;;;;;;;33.63;16.52;;;;;;;;;;4992755;28;93520;-77
2023/08/12 04:23:46;;;;;;;28.67;15.80;;;;;;;;;;4994046;28;92608;-77
2023/08/12 04:26:12;;;;;;;32.95;17.27;;;;;;;;;;4990095;28;93413;-76
2023/08/12 04:28:38;;;;;;;29.80;16.48;;;;;;;;;;4989254;28;92787;-76
2023/08/12 04:31:06;;;;;;;31.60;16.95;;;;;;;;;;4985665;28;93181;-73
2023/08/12 04:33:32;;;;;;;29.30;14.98;;;;;;;;;;4988501;28;93632;-73
2023/08/12 04:35:58;;;;;;;31.48;16.38;;;;;;;;;;4991996;28;93173;-74
2023/08/12 04:38:25;;;;;;;28.38;15.50;;;;;;;;;;4991051;28;95590;-73
2023/08/12 04:40:54;;;;;;;33.60;16.25;;;;;;;;;;4996721;28;93428;-73
2023/08/12 04:43:21;;;;;;;25.83;15.07;;;;;;;;;;4991730;28;92678;-74
2023/08/12 04:45:48;;;;;;;31.38;15.35;;;;;;;;;;4992865;28;92553;-74
2023/08/12 04:48:14;;;;;;;36.00;16.33;;;;;;;;;;4990391;28;92428;-74
2023/08/12 04:50:43;;;;;;;26.70;13.93;;;;;;;;;;4991241;28;93400;-75
2023/08/12 04:53:10;;;;;;;26.48;13.95;;;;;;;;;;4992580;28;93865;-75
2023/08/12 04:55:37;;;;;;;28.80;14.30;;;;;;;;;;4991963;28;91881;-75
2023/08/12 04:58:04;;;;;;;24.77;13.82;;;;;;;;;;4991146;28;92733;-75
2023/08/12 05:00:30;;;;;;;23.50;12.82;;;;;;;;;;4987740;28;94514;-75
2023/08/12 05:02:57;;;;;;;24.15;12.80;;;;;;;;;;4980843;28;95326;-75
2023/08/12 05:05:23;;;;;;;29.33;14.10;;;;;;;;;;4990570;28;96597;-75
2023/08/12 05:07:50;;;;;;;22.05;11.82;;;;;;;;;;4994772;28;93240;-73
2023/08/12 05:10:16;;;;;;;25.77;11.35;;;;;;;;;;4989915;28;93386;-73
2023/08/12 05:12:43;;;;;;;20.05;11.15;;;;;;;;;;4988687;28;93787;-73
2023/08/12 05:15:10;;;;;;;24.23;11.07;;;;;;;;;;4987835;28;92627;-73
2023/08/12 05:17:37;;;;;;;24.67;12.60;;;;;;;;;;4991055;28;93216;-73
2023/08/12 05:20:04;;;;;;;28.70;12.63;;;;;;;;;;4992828;28;91689;-75
2023/08/12 05:22:30;;;;;;;19.65;12.15;;;;;;;;;;4993579;28;92489;-75
2023/08/12 05:24:57;;;;;;;23.58;12.35;;;;;;;;;;4992163;28;93149;-73
2023/08/12 05:27:23;;;;;;;23.08;13.25;;;;;;;;;;5001916;28;98204;-74
2023/08/12 05:29:49;;;;;;;25.38;11.82;;;;;;;;;;4994514;28;92604;-74
2023/08/12 05:32:16;;;;;;;25.58;12.15;;;;;;;;;;4993141;28;93563;-73
2023/08/12 05:34:42;;;;;;;22.48;12.38;;;;;;;;;;4995300;28;92579;-73
2023/08/12 05:37:10;;;;;;;27.45;12.85;;;;;;;;;;4990084;28;92356;-73
2023/08/12 05:39:36;;;;;;;33.03;14.38;;;;;;;;;;4996210;28;93433;-73
2023/08/12 05:42:02;;;;;;;26.05;13.68;;;;;;;;;;4998268;28;92391;-76
2023/08/12 05:44:29;;;;;;;26.10;13.15;;;;;;;;;;4992354;28;93260;-74
2023/08/12 05:46:55;;;;;;;24.35;13.75;;;;;;;;;;4989759;28;93351;-73
2023/08/12 05:49:22;;;;;;;27.55;13.20;;;;;;;;;;4988657;28;93898;-73
2023/08/12 05:51:48;;;;;;;22.98;13.85;;;;;;;;;;4990634;28;94981;-72
2023/08/12 05:54:15;;;;;;;31.15;14.43;;;;;;;;;;4988450;28;92549;-72
2023/08/12 05:56:41;;;;;;;23.23;12.70;;;;;;;;;;4986703;28;93163;-73
2023/08/12 05:59:07;;;;;;;23.55;12.85;;;;;;;;;;4989929;28;93463;-73
2023/08/12 06:01:34;;;;;;;25.25;13.30;;;;;;;;;;4990882;28;92511;-75
2023/08/12 06:04:00;;;;;;;18.42;11.50;;;;;;;;;;4984439;28;93070;-75
2023/08/12 06:06:27;;;;;;;20.48;11.02;;;;;;;;;;4988944;28;93975;-72
2023/08/12 06:08:53;;;;;;;18.92;11.38;;;;;;;;;;4991150;28;91992;-74
2023/08/12 06:11:19;;;;;;;22.45;10.80;;;;;;;;;;4991485;28;93470;-74
2023/08/12 06:13:46;;;;;;;22.30;9.95;;;;;;;;;;4992206;28;93888;-73
2023/08/12 06:16:12;;;;;;;19.67;9.63;;;;;;;;;;4990352;28;96703;-72
2023/08/12 06:18:38;;;;;;;15.45;8.75;;;;;;;;;;4992298;28;93806;-72
2023/08/12 06:21:05;;;;;;;15.77;8.43;;;;;;;;;;4987076;28;92472;-73
2023/08/12 06:23:31;;;;;;;15.18;8.68;;;;;;;;;;4991199;28;93660;-74
2023/08/12 06:25:57;;;;;;;16.75;9.38;;;;;;;;;;4990586;28;93409;-74
2023/08/12 06:28:24;;;;;;;15.75;9.25;;;;;;;;;;4997531;28;92680;-74
2023/08/12 06:30:50;;;;;;;16.58;9.38;;;;;;;;;;4990093;28;93123;-74
2023/08/12 06:33:17;;;;;;;14.73;9.13;;;;;;;;;;4999327;28;91711;-73
2023/08/12 06:35:44;;;;;;;12.75;8.27;;;;;;;;;;4992403;28;94555;-73
2023/08/12 06:38:11;;;;;;;17.88;8.82;;;;;;;;;;4990284;28;94043;-73
2023/08/12 06:40:38;;;;;;;10.98;7.70;;;;;;;;;;4987530;28;94906;-73
2023/08/12 06:43:04;;;;;;;13.70;8.10;;;;;;;;;;4995320;28;96576;-73
2023/08/12 06:45:31;;;;;;;13.52;8.48;;;;;;;;;;4991861;28;93416;-73
2023/08/12 06:47:57;;;;;;;13.02;8.07;;;;;;;;;;4994575;28;92807;-73
2023/08/12 06:50:23;;;;;;;13.75;7.85;;;;;;;;;;4989098;28;94308;-72
2023/08/12 06:52:50;;;;;;;10.73;7.18;;;;;;;;;;4995942;28;93576;-73
2023/08/12 06:55:17;;;;;;;11.75;7.88;;;;;;;;;;4987865;28;92597;-73
2023/08/12 06:57:43;;;;;;;12.90;7.40;;;;;;;;;;4991640;28;91696;-73
2023/08/12 07:00:10;;;;;;;11.68;8.40;;;;;;;;;;4991429;28;92382;-73
2023/08/12 07:02:36;;;;;;;11.18;8.15;;;;;;;;;;4987977;28;94186;-73
2023/08/12 07:05:03;;;;;;;10.02;7.07;;;;;;;;;;4994306;28;95805;-73
2023/08/12 07:07:30;;;;;;;10.63;7.32;;;;;;;;;;4984308;28;92657;-72
2023/08/12 07:09:57;;;;;;;15.02;8.02;;;;;;;;;;4990002;28;93127;-71
2023/08/12 07:12:23;;;;;;;12.77;7.65;;;;;;;;;;4990673;28;94368;-70
2023/08/12 07:14:49;;;;;;;12.38;8.43;;;;;;;;;;4990790;28;92563;-71
2023/08/12 07:17:16;;;;;;;11.32;7.97;;;;;;;;;;4994816;28;94274;-71
2023/08/12 07:19:42;;;;;;;11.20;7.60;;;;;;;;;;4990793;28;92471;-71
2023/08/12 07:22:08;;;;;;;14.82;7.75;;;;;;;;;;4988651;28;93140;-71
2023/08/12 07:24:35;;;;;;;13.52;7.93;;;;;;;;;;4993362;28;93393;-71
2023/08/12 07:27:02;;;;;;;9.15;6.85;;;;;;;;;;4994804;28;95002;-71
2023/08/12 07:29:31;;;;;;;11.27;5.65;;;;;;;;;;4992062;28;94912;-71
2023/08/12 07:31:58;;;;;;;10.25;5.10;;;;;;;;;;4994767;28;93404;-71
2023/08/12 07:34:24;;;;;;;8.20;5.00;;;;;;;;;;4992237;28;92502;-71
2023/08/12 07:36:53;;;;;;;7.78;4.80;;;;;;;;;;4990867;28;93500;-71
2023/08/12 07:39:20;;;;;;;8.55;4.95;;;;;;;;;;4993593;28;93337;-71
2023/08/12 07:41:46;;;;;;;9.05;5.10;;;;;;;;;;4997913;28;94160;-71
2023/08/12 07:44:13;;;;;;;10.70;4.40;;;;;;;;;;4986635;28;93410;-71
2023/08/12 07:46:39;;;;;;;10.15;5.38;;;;;;;;;;4991651;28;91709;-71
2023/08/12 07:49:05;;;;;;;8.57;4.90;;;;;;;;;;4989086;28;93768;-72
2023/08/12 07:51:32;;;;;;;7.28;5.32;;;;;;;;;;4993660;28;95715;-72
2023/08/12 07:53:58;;;;;;;7.93;5.50;;;;;;;;;;4992928;28;94835;-71
2023/08/12 07:56:25;;;;;;;7.55;6.13;;;;;;;;;;4999108;28;95602;-72
2023/08/12 07:58:51;;;;;;;5.78;4.80;;;;;;;;;;4991855;28;93477;-72
2023/08/12 08:01:17;;;;;;;5.13;4.63;;;;;;;;;;4995792;28;92579;-72
2023/08/12 08:03:44;;;;;;;6.57;4.25;;;;;;;;;;4994204;28;94334;-69
2023/08/12 08:06:10;;;;;;;7.05;5.22;;;;;;;;;;4987244;28;92552;-70
2023/08/12 08:08:36;;;;;;;6.38;5.13;;;;;;;;;;4992375;28;93129;-70
2023/08/12 08:11:03;;;;;;;9.07;6.20;;;;;;;;;;4987948;28;92904;-69
2023/08/12 08:13:29;;;;;;;8.55;5.90;;;;;;;;;;4993885;28;92509;-69
2023/08/12 08:15:56;;;;;;;8.82;5.95;;;;;;;;;;4992204;28;94141;-70
2023/08/12 08:18:22;;;;;;;5.35;4.50;;;;;;;;;;4993230;28;95907;-69
2023/08/12 08:20:49;;;;;;;7.80;3.50;;;;;;;;;;4991595;28;92423;-70
2023/08/12 08:23:15;;;;;;;3.10;2.80;;;;;;;;;;4997561;28;93445;-70
2023/08/12 08:25:42;;;;;;;4.32;3.10;;;;;;;;;;4988797;28;92926;-70
2023/08/12 08:28:08;;;;;;;3.10;2.90;;;;;;;;;;4991186;28;93166;-70
2023/08/12 08:30:36;;;;;;;7.28;2.65;;;;;;;;;;4995188;28;94435;-70
2023/08/12 08:33:02;;;;;;;2.65;2.10;;;;;;;;;;4993764;28;92412;-70
2023/08/12 08:35:29;;;;;;;2.20;2.10;;;;;;;;;;4991256;28;93460;-70
2023/08/12 08:37:55;;;;;;;2.22;2.10;;;;;;;;;;4994892;28;92369;-70
2023/08/12 08:40:22;;;;;;;1.70;1.60;;;;;;;;;;4992746;28;92529;-70
2023/08/12 08:42:51;;;;;;;1.30;1.20;;;;;;;;;;4993265;28;94906;-70
2023/08/12 08:45:18;;;;;;;1.50;1.38;;;;;;;;;;4986425;28;92549;-69
2023/08/12 08:47:44;;;;;;;1.83;1.73;;;;;;;;;;4994602;28;94205;-70
2023/08/12 08:50:11;;;;;;;1.48;1.40;;;;;;;;;;4992367;28;94518;-70
2023/08/12 08:52:39;;;;;;;1.70;1.58;;;;;;;;;;4991478;28;92466;-69
2023/08/12 08:55:05;;;;;;;2.22;1.75;;;;;;;;;;4992472;28;93075;-70
2023/08/12 08:57:34;;;;;;;6.32;1.67;;;;;;;;;;4992042;28;93436;-70
2023/08/12 09:00:11;;;;;;;1.00;1.00;;;;;;;;;;4994613;28;91809;-70
2023/08/12 09:02:41;;;;;;;1.40;1.30;;;;;;;;;;4991731;28;92898;-70
2023/08/12 09:05:08;;;;;;;1.55;1.10;;;;;;;;;;4992558;28;93619;-70
2023/08/12 09:07:34;;;;;;;1.10;1.10;;;;;;;;;;4991911;28;95019;-70
2023/08/12 09:10:01;;;;;;;1.27;1.08;;;;;;;;;;4993893;28;93370;-70
2023/08/12 09:12:27;;;;;;;1.60;1.33;;;;;;;;;;4990500;28;92572;-69
2023/08/12 09:14:54;;;;;;;3.08;1.40;;;;;;;;;;4994827;28;94256;-70
2023/08/12 09:17:20;;;;;;;3.85;1.40;;;;;;;;;;4992294;28;93341;-70
2023/08/12 09:19:47;;;;;;;4.10;1.50;;;;;;;;;;4993426;28;92410;-70
2023/08/12 09:22:13;;;;;;;4.32;1.38;;;;;;;;;;4996072;28;93581;-70
2023/08/12 09:24:40;;;;;;;3.15;1.55;;;;;;;;;;4993883;28;92519;-70
2023/08/12 09:27:06;;;;;;;7.00;1.60;;;;;;;;;;5011778;28;94856;-70
2023/08/12 09:29:34;;;;;;;5.38;1.52;;;;;;;;;;4988025;28;93445;-70
2023/08/12 09:32:09;;;;;;;7.15;1.63;;;;;;;;;;4986301;28;96796;-71
2023/08/12 09:34:36;;;;;;;3.25;1.30;;;;;;;;;;5000313;28;95308;-70
2023/08/12 09:37:03;;;;;;;7.43;1.70;;;;;;;;;;4992148;28;93571;-70
2023/08/12 09:39:30;;;;;;;5.03;1.50;;;;;;;;;;4992161;28;92572;-70
2023/08/12 09:41:57;;;;;;;4.18;1.52;;;;;;;;;;4992667;28;93114;-70
2023/08/12 09:44:24;;;;;;;6.57;1.95;;;;;;;;;;4990273;28;93337;-71
2023/08/12 09:46:56;;;;;;;6.15;1.58;;;;;;;;;;4991166;28;92483;-71
2023/08/12 09:49:22;;;;;;;8.02;2.22;;;;;;;;;;4995556;28;93428;-70
2023/08/12 09:51:50;;;;;;;7.78;1.85;;;;;;;;;;4994130;28;92548;-71
2023/08/12 09:54:17;;;;;;;3.22;1.60;;;;;;;;;;4992671;28;93043;-70
2023/08/12 09:56:47;;;;;;;6.28;1.73;;;;;;;;;;4989478;28;96806;-71
2023/08/12 09:59:15;;;;;;;5.70;1.42;;;;;;;;;;4988985;28;92530;-71
2023/08/12 10:01:43;;;;;;;6.93;2.25;;;;;;;;;;4992876;28;94497;-70
2023/08/12 10:04:13;;;;;;;4.22;1.70;;;;;;;;;;4998581;28;94411;-70
2023/08/12 10:06:40;;;;;;;4.03;1.60;;;;;;;;;;4987692;28;92698;-70
2023/08/12 10:09:08;;;;;;;9.00;2.45;;;;;;;;;;4992905;28;93114;-71
2023/08/12 10:11:35;;;;;;;3.53;1.73;;;;;;;;;;4998853;28;95829;-70
2023/08/12 10:14:02;;;;;;;4.68;1.85;;;;;;;;;;4988038;28;93086;-70
2023/08/12 10:16:29;;;;;;;7.13;2.42;;;;;;;;;;4989909;28;94622;-70
2023/08/12 10:18:57;;;;;;;5.85;1.60;;;;;;;;;;4987017;28;93918;-70
2023/08/12 10:21:24;;;;;;;4.75;1.77;;;;;;;;;;4991097;28;95125;-70
2023/08/12 10:23:50;;;;;;;6.20;1.70;;;;;;;;;;4987520;28;94438;-70
2023/08/12 10:26:17;;;;;;;4.30;1.55;;;;;;;;;;4990123;28;92532;-71
2023/08/12 10:28:43;;;;;;;9.30;2.08;;;;;;;;;;4991174;28;94535;-71
2023/08/12 10:31:11;;;;;;;7.15;1.80;;;;;;;;;;4995842;28;93323;-71
2023/08/12 10:33:38;;;;;;;7.32;2.20;;;;;;;;;;4992149;28;92429;-71
2023/08/12 10:36:05;;;;;;;13.02;2.13;;;;;;;;;;4990848;28;93540;-71
2023/08/12 10:38:32;;;;;;;5.93;2.10;;;;;;;;;;4991995;28;91922;-71
2023/08/12 10:41:15;;;;;;;10.27;2.33;;;;;;;;;;4990139;28;92745;-71
2023/08/12 10:43:50;;;;;;;6.18;1.75;;;;;;;;;;4989149;28;93444;-71
2023/08/12 10:46:23;;;;;;;8.75;1.77;;;;;;;;;;4989329;28;94885;-71
2023/08/12 10:48:56;;;;;;;8.52;2.38;;;;;;;;;;4989185;28;95831;-71
2023/08/12 10:51:38;;;;;;;9.57;2.15;;;;;;;;;;4988965;28;93557;-71
2023/08/12 10:54:17;;;;;;;6.05;2.00;;;;;;;;;;4996845;28;92961;-71
2023/08/12 10:57:05;;;;;;;9.63;2.15;;;;;;;;;;4995782;28;93392;-71
2023/08/12 10:59:50;;;;;;;9.23;1.90;;;;;;;;;;4990546;28;92525;-71
2023/08/12 11:02:25;;;;;;;5.80;1.77;;;;;;;;;;4994646;28;94562;-71
2023/08/12 11:04:53;;;;;;;8.82;2.50;;;;;;;;;;4995568;28;92718;-71
2023/08/12 11:07:20;;;;;;;7.65;1.80;;;;;;;;;;4993214;28;92584;-72
2023/08/12 11:09:52;;;;;;;9.73;2.25;;;;;;;;;;4994145;28;92598;-71
2023/08/12 11:12:18;;;;;;;10.02;2.50;;;;;;;;;;4991909;28;95608;-71
2023/08/12 11:14:49;;;;;;;6.18;2.03;;;;;;;;;;4993983;28;92484;-71
2023/08/12 11:17:15;;;;;;;10.75;2.33;;;;;;;;;;5002603;28;93460;-71
2023/08/12 11:19:42;;;;;;;12.43;2.22;;;;;;;;;;4996339;28;92542;-71
2023/08/12 11:22:09;;;;;;;10.50;2.58;;;;;;;;;;4997155;28;93210;-71
2023/08/12 11:24:37;;;;;;;13.13;2.17;;;;;;;;;;4992074;28;93356;-71
2023/08/12 11:27:03;;;;;;;12.20;2.70;;;;;;;;;;4992940;28;92775;-71
2023/08/12 11:29:29;;;;;;;9.40;1.90;;;;;;;;;;4992247;28;94141;-71
2023/08/12 11:31:56;;;;;;;10.80;2.50;;;;;;;;;;4993615;28;94578;-71
2023/08/12 11:34:22;;;;;;;8.00;2.05;;;;;;;;;;4994339;28;92626;-71
2023/08/12 11:36:49;;;;;;;8.88;2.10;;;;;;;;;;4994825;28;94929;-71
2023/08/12 11:39:16;;;;;;;6.20;2.10;;;;;;;;;;5000449;28;93550;-71
2023/08/12 11:41:42;;;;;;;9.57;2.15;;;;;;;;;;4996435;28;93422;-71
2023/08/12 11:44:15;;;;;;;9.25;2.13;;;;;;;;;;4992690;28;93748;-71
2023/08/12 11:46:41;;;;;;;8.98;1.83;;;;;;;;;;4991321;28;92691;-71
2023/08/12 11:49:07;;;;;;;11.60;2.75;;;;;;;;;;4995711;28;93199;-72
2023/08/12 11:51:34;;;;;;;5.75;1.67;;;;;;;;;;4993281;28;93481;-72
2023/08/12 11:54:01;;;;;;;12.77;2.33;;;;;;;;;;4992067;28;91687;-73
2023/08/12 11:56:27;;;;;;;4.63;1.98;;;;;;;;;;4991589;28;92566;-73
2023/08/12 11:58:54;;;;;;;6.65;2.15;;;;;;;;;;4988322;28;93407;-72
2023/08/12 12:01:20;;;;;;;5.30;1.73;;;;;;;;;;4996410;28;94963;-72
2023/08/12 12:03:51;;;;;;;13.90;2.00;;;;;;;;;;4992852;28;93719;-73
2023/08/12 12:06:17;;;;;;;6.97;1.80;;;;;;;;;;4997564;28;92726;-73
2023/08/12 12:08:44;;;;;;;9.35;2.35;;;;;;;;;;4994151;28;93295;-73
2023/08/12 12:11:11;;;;;;;10.27;2.00;;;;;;;;;;4994340;28;93440;-73
2023/08/12 12:13:37;;;;;;;9.02;1.88;;;;;;;;;;4997367;28;94218;-76
2023/08/12 12:16:09;;;;;;;6.93;1.88;;;;;;;;;;4995417;28;93169;-74
2023/08/12 12:18:36;;;;;;;8.88;2.25;;;;;;;;;;4998896;28;92696;-74
2023/08/12 12:21:02;;;;;;;9.05;2.00;;;;;;;;;;4995056;28;92599;-72
2023/08/12 12:23:29;;;;;;;11.88;1.92;;;;;;;;;;4997152;28;94195;-72
2023/08/12 12:26:02;;;;;;;10.20;2.20;;;;;;;;;;4989740;28;94946;-74
2023/08/12 12:28:28;;;;;;;8.55;1.90;;;;;;;;;;4993228;28;95870;-73
2023/08/12 12:30:54;;;;;;;7.97;2.00;;;;;;;;;;4993049;28;94555;-74
2023/08/12 12:33:21;;;;;;;10.77;2.42;;;;;;;;;;4994850;28;92449;-74
2023/08/12 12:35:47;;;;;;;9.70;1.98;;;;;;;;;;4996885;28;92474;-75
2023/08/12 12:38:24;;;;;;;8.00;1.83;;;;;;;;;;4991374;28;93890;-74
2023/08/12 12:40:50;;;;;;;7.63;1.52;;;;;;;;;;4992956;28;92454;-74
2023/08/12 12:43:17;;;;;;;11.45;2.60;;;;;;;;;;4997106;28;93122;-74
2023/08/12 12:45:43;;;;;;;13.00;2.10;;;;;;;;;;4992466;28;92796;-74
2023/08/12 12:48:10;;;;;;;9.13;2.28;;;;;;;;;;4993168;28;94222;-74
2023/08/12 12:50:37;;;;;;;13.90;2.20;;;;;;;;;;4991721;28;95931;-74
2023/08/12 12:53:04;;;;;;;11.73;2.15;;;;;;;;;;4982575;28;92439;-74
2023/08/12 12:55:30;;;;;;;7.10;1.83;;;;;;;;;;4990571;28;93222;-73
2023/08/12 12:57:56;;;;;;;10.00;2.42;;;;;;;;;;4989089;28;94403;-74
2023/08/12 13:00:23;;;;;;;6.70;1.80;;;;;;;;;;4994148;28;92437;-74
2023/08/12 13:02:49;;;;;;;8.48;1.98;;;;;;;;;;4993748;28;94251;-74
2023/08/12 13:05:16;;;;;;;7.15;2.08;;;;;;;;;;4992895;28;93441;-74
2023/08/12 13:07:42;;;;;;;13.18;2.13;;;;;;;;;;4992189;28;93265;-74
2023/08/12 13:10:08;;;;;;;10.73;2.42;;;;;;;;;;4990857;28;93330;-74
2023/08/12 13:12:35;;;;;;;13.15;2.22;;;;;;;;;;4992679;28;92436;-73
2023/08/12 13:15:01;;;;;;;9.00;2.60;;;;;;;;;;4988155;28;94812;-74
2023/08/12 13:17:28;;;;;;;9.02;2.70;;;;;;;;;;4993273;28;96488;-74
2023/08/12 13:19:54;;;;;;;11.93;2.63;;;;;;;;;;4992347;28;92481;-74
2023/08/12 13:22:21;;;;;;;8.38;1.98;;;;;;;;;;4992494;28;94539;-74
2023/08/12 13:24:47;;;;;;;12.20;2.13;;;;;;;;;;4992287;28;94849;-74
2023/08/12 13:27:14;;;;;;;12.43;2.45;;;;;;;;;;4993710;28;92539;-74
2023/08/12 13:29:41;;;;;;;6.93;2.50;;;;;;;;;;4988399;28;94485;-74
2023/08/12 13:32:07;;;;;;;9.30;2.58;;;;;;;;;;4994218;28;91852;-73
2023/08/12 13:34:33;;;;;;;12.02;2.38;;;;;;;;;;4993250;28;93404;-74
2023/08/12 13:37:00;;;;;;;11.30;2.20;;;;;;;;;;4992337;28;94834;-74
2023/08/12 13:39:26;;;;;;;9.65;2.58;;;;;;;;;;4987668;28;94930;-73
2023/08/12 13:41:54;;;;;;;6.40;2.22;;;;;;;;;;4991873;28;95763;-74
2023/08/12 13:44:21;;;;;;;9.50;2.25;;;;;;;;;;4992387;28;93514;-73
2023/08/12 13:46:47;;;;;;;13.90;2.83;;;;;;;;;;4985535;28;92998;-74
2023/08/12 13:49:14;;;;;;;10.50;3.15;;;;;;;;;;4995210;28;94204;-73
2023/08/12 13:51:40;;;;;;;8.90;2.00;;;;;;;;;;4993133;28;92438;-73
2023/08/12 13:54:06;;;;;;;17.25;2.47;;;;;;;;;;4983921;28;93782;-73
2023/08/12 13:56:33;;;;;;;10.90;2.45;;;;;;;;;;4989503;28;93151;-73
2023/08/12 13:58:59;;;;;;;7.55;2.10;;;;;;;;;;4993038;28;92542;-73
2023/08/12 14:01:26;;;;;;;10.13;2.47;;;;;;;;;;4997062;28;93069;-74
2023/08/12 14:03:52;;;;;;;9.13;2.10;;;;;;;;;;4983770;28;97179;-73
2023/08/12 14:06:19;;;;;;;10.52;3.00;;;;;;;;;;4989257;28;92560;-73
2023/08/12 14:08:45;;;;;;;13.13;2.90;;;;;;;;;;4990698;28;93548;-70
2023/08/12 14:11:11;;;;;;;11.65;2.60;;;;;;;;;;4994848;28;93317;-70
2023/08/12 14:13:38;;;;;;;11.77;3.60;;;;;;;;;;4993998;28;95941;-70
2023/08/12 14:16:04;;;;;;;17.63;3.00;;;;;;;;;;4993230;28;93351;-70
2023/08/12 14:18:31;;;;;;;11.75;2.78;;;;;;;;;;4994303;28;92415;-70
2023/08/12 14:20:57;;;;;;;9.68;2.38;;;;;;;;;;4992925;28;93112;-70
2023/08/12 14:23:23;;;;;;;9.95;2.70;;;;;;;;;;4994654;28;93386;-70
2023/08/12 14:25:50;;;;;;;10.35;2.60;;;;;;;;;;4992286;28;92545;-71
2023/08/12 14:28:16;;;;;;;18.33;2.35;;;;;;;;;;4991278;28;94944;-70
2023/08/12 14:30:43;;;;;;;11.02;2.45;;;;;;;;;;4993621;28;93438;-69